sensor_id;sensor_type;location;lat;lon;timestamp;P1;durP1;ratioP1;P2;durP2;ratioP2
75016;SDS011;63577;39.766;2.720;2023-01-13T00:01:16;16.20;;;8.70;;
75016;SDS011;63577;39.766;2.720;2023-01-13T00:03:42;15.80;;;8.30;;
75016;SDS011;63577;39.766;2.720;2023-01-13T00:06:08;17.20;;;9.00;;
75016;SDS011;63577;39.766;2.720;2023-01-13T00:08:36;21.60;;;10.00;;
75016;SDS011;63577;39.766;2.720;2023-01-13T00:11:01;16.10;;;8.80;;
75016;SDS011;63577;39.766;2.720;2023-01-13T00:13:26;16.00;;;7.60;;
75016;SDS011;63577;39.766;2.720;2023-01-13T00:15:59;13.90;;;7.30;;
75016;SDS011;63577;39.766;2.720;2023-01-13T00:18:24;11.40;;;5.90;;
75016;SDS011;63577;39.766;2.720;2023-01-13T00:21:03;12.10;;;5.80;;
75016;SDS011;63577;39.766;2.720;2023-01-13T00:23:30;10.90;;;5.80;;
75016;SDS011;63577;39.766;2.720;2023-01-13T00:25:56;10.10;;;5.20;;
75016;SDS011;63577;39.766;2.720;2023-01-13T00:28:22;11.40;;;5.40;;
75016;SDS011;63577;39.766;2.720;2023-01-13T00:30:47;9.20;;;4.70;;
75016;SDS011;63577;39.766;2.720;2023-01-13T00:33:12;6.50;;;3.20;;
75016;SDS011;63577;39.766;2.720;2023-01-13T00:35:38;8.80;;;4.10;;
75016;SDS011;63577;39.766;2.720;2023-01-13T00:38:03;6.10;;;2.80;;
75016;SDS011;63577;39.766;2.720;2023-01-13T00:40:29;7.10;;;3.60;;
75016;SDS011;63577;39.766;2.720;2023-01-13T00:42:54;7.00;;;2.50;;
75016;SDS011;63577;39.766;2.720;2023-01-13T00:45:38;6.30;;;2.60;;
75016;SDS011;63577;39.766;2.720;2023-01-13T00:48:03;6.30;;;2.50;;
75016;SDS011;63577;39.766;2.720;2023-01-13T00:50:28;5.90;;;1.90;;
75016;SDS011;63577;39.766;2.720;2023-01-13T00:52:54;4.50;;;1.80;;
75016;SDS011;63577;39.766;2.720;2023-01-13T00:55:20;6.10;;;2.30;;
75016;SDS011;63577;39.766;2.720;2023-01-13T00:57:45;5.00;;;1.50;;
75016;SDS011;63577;39.766;2.720;2023-01-13T01:00:11;6.00;;;2.00;;
75016;SDS011;63577;39.766;2.720;2023-01-13T01:02:36;5.40;;;1.30;;
75016;SDS011;63577;39.766;2.720;2023-01-13T01:05:01;4.40;;;1.10;;
75016;SDS011;63577;39.766;2.720;2023-01-13T01:07:27;5.50;;;1.20;;
75016;SDS011;63577;39.766;2.720;2023-01-13T01:09:52;4.80;;;1.10;;
75016;SDS011;63577;39.766;2.720;2023-01-13T01:12:17;3.80;;;0.90;;
75016;SDS011;63577;39.766;2.720;2023-01-13T01:14:43;6.00;;;1.30;;
75016;SDS011;63577;39.766;2.720;2023-01-13T01:17:08;5.00;;;1.20;;
75016;SDS011;63577;39.766;2.720;2023-01-13T01:19:33;6.90;;;2.00;;
75016;SDS011;63577;39.766;2.720;2023-01-13T01:22:01;4.50;;;1.50;;
75016;SDS011;63577;39.766;2.720;2023-01-13T01:24:27;4.20;;;1.50;;
75016;SDS011;63577;39.766;2.720;2023-01-13T01:26:52;4.80;;;1.40;;
75016;SDS011;63577;39.766;2.720;2023-01-13T01:29:17;5.80;;;1.40;;
75016;SDS011;63577;39.766;2.720;2023-01-13T01:31:43;6.50;;;2.00;;
75016;SDS011;63577;39.766;2.720;2023-01-13T01:34:09;3.60;;;0.90;;
75016;SDS011;63577;39.766;2.720;2023-01-13T01:36:34;4.40;;;0.80;;
75016;SDS011;63577;39.766;2.720;2023-01-13T01:39:00;3.80;;;0.80;;
75016;SDS011;63577;39.766;2.720;2023-01-13T01:41:27;6.60;;;1.10;;
75016;SDS011;63577;39.766;2.720;2023-01-13T01:43:57;5.00;;;1.20;;
75016;SDS011;63577;39.766;2.720;2023-01-13T01:46:23;4.10;;;0.90;;
75016;SDS011;63577;39.766;2.720;2023-01-13T01:48:49;3.30;;;0.90;;
75016;SDS011;63577;39.766;2.720;2023-01-13T01:51:14;4.80;;;1.00;;
75016;SDS011;63577;39.766;2.720;2023-01-13T01:53:40;4.70;;;1.10;;
75016;SDS011;63577;39.766;2.720;2023-01-13T01:56:07;4.00;;;1.00;;
75016;SDS011;63577;39.766;2.720;2023-01-13T01:58:34;3.40;;;1.50;;
75016;SDS011;63577;39.766;2.720;2023-01-13T02:01:01;4.50;;;1.10;;
75016;SDS011;63577;39.766;2.720;2023-01-13T02:03:27;4.00;;;1.00;;
75016;SDS011;63577;39.766;2.720;2023-01-13T02:05:53;5.30;;;0.90;;
75016;SDS011;63577;39.766;2.720;2023-01-13T02:08:19;3.20;;;0.80;;
75016;SDS011;63577;39.766;2.720;2023-01-13T02:10:45;5.20;;;0.90;;
75016;SDS011;63577;39.766;2.720;2023-01-13T02:13:12;3.70;;;0.80;;
75016;SDS011;63577;39.766;2.720;2023-01-13T02:18:30;3.20;;;0.70;;
75016;SDS011;63577;39.766;2.720;2023-01-13T02:32:08;3.00;;;0.60;;
75016;SDS011;63577;39.766;2.720;2023-01-13T02:34:44;2.70;;;0.70;;
75016;SDS011;63577;39.766;2.720;2023-01-13T02:37:18;3.30;;;0.70;;
75016;SDS011;63577;39.766;2.720;2023-01-13T02:45:18;2.00;;;0.60;;
75016;SDS011;63577;39.766;2.720;2023-01-13T02:47:46;3.40;;;0.80;;
75016;SDS011;63577;39.766;2.720;2023-01-13T02:50:15;3.60;;;0.60;;
75016;SDS011;63577;39.766;2.720;2023-01-13T02:52:42;4.10;;;0.80;;
75016;SDS011;63577;39.766;2.720;2023-01-13T02:55:12;4.10;;;1.10;;
75016;SDS011;63577;39.766;2.720;2023-01-13T02:57:40;4.20;;;1.00;;
75016;SDS011;63577;39.766;2.720;2023-01-13T03:00:07;7.00;;;0.80;;
75016;SDS011;63577;39.766;2.720;2023-01-13T03:02:34;3.50;;;0.80;;
75016;SDS011;63577;39.766;2.720;2023-01-13T03:04:59;2.00;;;0.70;;
75016;SDS011;63577;39.766;2.720;2023-01-13T03:10:28;6.60;;;0.90;;
75016;SDS011;63577;39.766;2.720;2023-01-13T03:13:07;3.30;;;0.70;;
75016;SDS011;63577;39.766;2.720;2023-01-13T03:18:21;4.80;;;1.00;;
75016;SDS011;63577;39.766;2.720;2023-01-13T03:20:55;3.20;;;0.70;;
75016;SDS011;63577;39.766;2.720;2023-01-13T03:23:35;3.70;;;0.60;;
75016;SDS011;63577;39.766;2.720;2023-01-13T03:28:28;3.80;;;0.90;;
75016;SDS011;63577;39.766;2.720;2023-01-13T03:30:58;3.10;;;0.70;;
75016;SDS011;63577;39.766;2.720;2023-01-13T03:33:27;4.40;;;0.90;;
75016;SDS011;63577;39.766;2.720;2023-01-13T03:35:55;4.80;;;1.00;;
75016;SDS011;63577;39.766;2.720;2023-01-13T03:38:32;3.20;;;1.10;;
75016;SDS011;63577;39.766;2.720;2023-01-13T03:40:59;6.50;;;1.90;;
75016;SDS011;63577;39.766;2.720;2023-01-13T03:43:40;7.10;;;2.10;;
75016;SDS011;63577;39.766;2.720;2023-01-13T03:49:21;4.90;;;1.40;;
75016;SDS011;63577;39.766;2.720;2023-01-13T03:51:50;5.50;;;1.30;;
75016;SDS011;63577;39.766;2.720;2023-01-13T03:54:17;4.20;;;1.30;;
75016;SDS011;63577;39.766;2.720;2023-01-13T03:56:46;4.20;;;1.20;;
75016;SDS011;63577;39.766;2.720;2023-01-13T03:59:14;4.70;;;1.30;;
75016;SDS011;63577;39.766;2.720;2023-01-13T04:01:44;6.40;;;1.80;;
75016;SDS011;63577;39.766;2.720;2023-01-13T04:09:40;5.90;;;1.90;;
75016;SDS011;63577;39.766;2.720;2023-01-13T04:12:13;5.70;;;2.20;;
75016;SDS011;63577;39.766;2.720;2023-01-13T04:14:39;7.30;;;2.60;;
75016;SDS011;63577;39.766;2.720;2023-01-13T04:17:05;5.60;;;2.40;;
75016;SDS011;63577;39.766;2.720;2023-01-13T04:19:31;7.40;;;2.50;;
75016;SDS011;63577;39.766;2.720;2023-01-13T04:21:57;7.40;;;2.40;;
75016;SDS011;63577;39.766;2.720;2023-01-13T04:24:22;7.90;;;2.40;;
75016;SDS011;63577;39.766;2.720;2023-01-13T04:26:48;5.70;;;2.10;;
75016;SDS011;63577;39.766;2.720;2023-01-13T04:29:13;7.70;;;2.40;;
75016;SDS011;63577;39.766;2.720;2023-01-13T04:31:38;6.20;;;1.60;;
75016;SDS011;63577;39.766;2.720;2023-01-13T04:34:04;6.60;;;2.00;;
75016;SDS011;63577;39.766;2.720;2023-01-13T04:36:30;5.60;;;2.00;;
75016;SDS011;63577;39.766;2.720;2023-01-13T04:38:55;6.20;;;2.20;;
75016;SDS011;63577;39.766;2.720;2023-01-13T04:41:21;5.50;;;1.90;;
75016;SDS011;63577;39.766;2.720;2023-01-13T04:43:46;6.80;;;1.90;;
75016;SDS011;63577;39.766;2.720;2023-01-13T04:46:12;6.10;;;1.60;;
75016;SDS011;63577;39.766;2.720;2023-01-13T04:48:37;7.10;;;1.90;;
75016;SDS011;63577;39.766;2.720;2023-01-13T04:51:02;4.40;;;1.30;;
75016;SDS011;63577;39.766;2.720;2023-01-13T04:53:28;4.40;;;1.40;;
75016;SDS011;63577;39.766;2.720;2023-01-13T04:55:53;6.40;;;1.40;;
75016;SDS011;63577;39.766;2.720;2023-01-13T04:58:19;6.60;;;1.60;;
75016;SDS011;63577;39.766;2.720;2023-01-13T05:00:45;6.00;;;1.70;;
75016;SDS011;63577;39.766;2.720;2023-01-13T05:03:10;6.60;;;1.80;;
75016;SDS011;63577;39.766;2.720;2023-01-13T05:05:35;8.60;;;1.90;;
75016;SDS011;63577;39.766;2.720;2023-01-13T05:08:02;7.20;;;2.30;;
75016;SDS011;63577;39.766;2.720;2023-01-13T05:10:27;6.20;;;2.00;;
75016;SDS011;63577;39.766;2.720;2023-01-13T05:12:52;6.60;;;1.70;;
75016;SDS011;63577;39.766;2.720;2023-01-13T05:15:38;6.80;;;2.00;;
75016;SDS011;63577;39.766;2.720;2023-01-13T05:18:22;6.80;;;2.10;;
75016;SDS011;63577;39.766;2.720;2023-01-13T05:20:48;5.80;;;2.00;;
75016;SDS011;63577;39.766;2.720;2023-01-13T05:23:14;5.10;;;2.10;;
75016;SDS011;63577;39.766;2.720;2023-01-13T05:25:58;7.00;;;2.10;;
75016;SDS011;63577;39.766;2.720;2023-01-13T05:28:23;7.20;;;2.20;;
75016;SDS011;63577;39.766;2.720;2023-01-13T05:30:49;4.70;;;1.80;;
75016;SDS011;63577;39.766;2.720;2023-01-13T05:33:16;6.20;;;2.10;;
75016;SDS011;63577;39.766;2.720;2023-01-13T05:35:42;7.20;;;2.20;;
75016;SDS011;63577;39.766;2.720;2023-01-13T05:38:08;5.20;;;1.90;;
75016;SDS011;63577;39.766;2.720;2023-01-13T05:40:33;7.00;;;2.40;;
75016;SDS011;63577;39.766;2.720;2023-01-13T05:43:19;6.00;;;2.00;;
75016;SDS011;63577;39.766;2.720;2023-01-13T05:48:13;7.10;;;1.90;;
75016;SDS011;63577;39.766;2.720;2023-01-13T05:50:39;11.30;;;2.40;;
75016;SDS011;63577;39.766;2.720;2023-01-13T05:53:05;6.00;;;1.80;;
75016;SDS011;63577;39.766;2.720;2023-01-13T05:55:30;5.40;;;1.50;;
75016;SDS011;63577;39.766;2.720;2023-01-13T05:57:56;5.10;;;1.50;;
75016;SDS011;63577;39.766;2.720;2023-01-13T06:00:21;4.30;;;1.40;;
75016;SDS011;63577;39.766;2.720;2023-01-13T06:02:46;6.50;;;1.70;;
75016;SDS011;63577;39.766;2.720;2023-01-13T06:05:12;4.10;;;1.30;;
75016;SDS011;63577;39.766;2.720;2023-01-13T06:07:37;5.40;;;1.70;;
75016;SDS011;63577;39.766;2.720;2023-01-13T06:10:02;4.90;;;1.80;;
75016;SDS011;63577;39.766;2.720;2023-01-13T06:12:28;6.20;;;1.50;;
75016;SDS011;63577;39.766;2.720;2023-01-13T06:14:53;5.10;;;1.70;;
75016;SDS011;63577;39.766;2.720;2023-01-13T06:17:19;5.40;;;1.60;;
75016;SDS011;63577;39.766;2.720;2023-01-13T06:19:44;5.40;;;2.00;;
75016;SDS011;63577;39.766;2.720;2023-01-13T06:22:10;7.30;;;2.10;;
75016;SDS011;63577;39.766;2.720;2023-01-13T06:24:37;6.30;;;1.70;;
75016;SDS011;63577;39.766;2.720;2023-01-13T06:27:04;6.30;;;1.70;;
75016;SDS011;63577;39.766;2.720;2023-01-13T06:29:30;5.70;;;1.90;;
75016;SDS011;63577;39.766;2.720;2023-01-13T06:31:55;4.90;;;1.70;;
75016;SDS011;63577;39.766;2.720;2023-01-13T06:34:21;6.30;;;2.00;;
75016;SDS011;63577;39.766;2.720;2023-01-13T06:36:47;4.80;;;1.50;;
75016;SDS011;63577;39.766;2.720;2023-01-13T06:39:16;6.80;;;1.90;;
75016;SDS011;63577;39.766;2.720;2023-01-13T06:41:43;5.40;;;1.70;;
75016;SDS011;63577;39.766;2.720;2023-01-13T06:44:27;4.40;;;1.70;;
75016;SDS011;63577;39.766;2.720;2023-01-13T06:46:52;5.40;;;1.50;;
75016;SDS011;63577;39.766;2.720;2023-01-13T06:49:18;6.50;;;1.70;;
75016;SDS011;63577;39.766;2.720;2023-01-13T06:51:43;6.00;;;1.70;;
75016;SDS011;63577;39.766;2.720;2023-01-13T06:54:10;7.70;;;2.00;;
75016;SDS011;63577;39.766;2.720;2023-01-13T06:56:35;6.70;;;2.40;;
75016;SDS011;63577;39.766;2.720;2023-01-13T06:59:01;8.10;;;2.50;;
75016;SDS011;63577;39.766;2.720;2023-01-13T07:01:26;8.60;;;2.40;;
75016;SDS011;63577;39.766;2.720;2023-01-13T07:03:51;6.70;;;2.80;;
75016;SDS011;63577;39.766;2.720;2023-01-13T07:06:17;8.60;;;2.90;;
75016;SDS011;63577;39.766;2.720;2023-01-13T07:08:42;11.20;;;4.30;;
75016;SDS011;63577;39.766;2.720;2023-01-13T07:11:08;9.70;;;3.90;;
75016;SDS011;63577;39.766;2.720;2023-01-13T07:13:33;11.30;;;4.00;;
75016;SDS011;63577;39.766;2.720;2023-01-13T07:16:18;8.80;;;3.60;;
75016;SDS011;63577;39.766;2.720;2023-01-13T07:18:43;10.60;;;3.80;;
75016;SDS011;63577;39.766;2.720;2023-01-13T07:21:09;11.50;;;3.70;;
75016;SDS011;63577;39.766;2.720;2023-01-13T07:23:36;13.40;;;6.50;;
75016;SDS011;63577;39.766;2.720;2023-01-13T07:26:03;16.40;;;6.20;;
75016;SDS011;63577;39.766;2.720;2023-01-13T07:28:30;12.50;;;5.40;;
75016;SDS011;63577;39.766;2.720;2023-01-13T07:30:55;24.70;;;13.40;;
75016;SDS011;63577;39.766;2.720;2023-01-13T07:33:21;34.80;;;18.70;;
75016;SDS011;63577;39.766;2.720;2023-01-13T07:35:46;27.40;;;15.20;;
75016;SDS011;63577;39.766;2.720;2023-01-13T07:38:12;24.40;;;12.10;;
75016;SDS011;63577;39.766;2.720;2023-01-13T07:40:38;20.40;;;9.60;;
75016;SDS011;63577;39.766;2.720;2023-01-13T07:43:03;21.30;;;10.00;;
75016;SDS011;63577;39.766;2.720;2023-01-13T07:45:47;16.80;;;8.00;;
75016;SDS011;63577;39.766;2.720;2023-01-13T07:48:13;25.00;;;14.20;;
75016;SDS011;63577;39.766;2.720;2023-01-13T07:50:38;36.00;;;19.80;;
75016;SDS011;63577;39.766;2.720;2023-01-13T07:53:03;28.60;;;15.80;;
75016;SDS011;63577;39.766;2.720;2023-01-13T07:55:29;27.80;;;16.00;;
75016;SDS011;63577;39.766;2.720;2023-01-13T07:57:54;35.50;;;19.50;;
75016;SDS011;63577;39.766;2.720;2023-01-13T08:00:20;54.50;;;31.10;;
75016;SDS011;63577;39.766;2.720;2023-01-13T08:02:45;49.70;;;30.60;;
75016;SDS011;63577;39.766;2.720;2023-01-13T08:05:10;42.70;;;23.00;;
75016;SDS011;63577;39.766;2.720;2023-01-13T08:07:36;47.10;;;25.40;;
75016;SDS011;63577;39.766;2.720;2023-01-13T08:10:02;53.20;;;27.90;;
75016;SDS011;63577;39.766;2.720;2023-01-13T08:12:28;49.00;;;24.80;;
75016;SDS011;63577;39.766;2.720;2023-01-13T08:15:12;49.60;;;28.40;;
75016;SDS011;63577;39.766;2.720;2023-01-13T08:17:37;51.20;;;29.90;;
75016;SDS011;63577;39.766;2.720;2023-01-13T08:20:03;44.60;;;26.40;;
75016;SDS011;63577;39.766;2.720;2023-01-13T08:22:29;55.60;;;29.20;;
75016;SDS011;63577;39.766;2.720;2023-01-13T08:24:57;63.70;;;34.60;;
75016;SDS011;63577;39.766;2.720;2023-01-13T08:27:22;69.40;;;34.60;;
75016;SDS011;63577;39.766;2.720;2023-01-13T08:29:47;60.70;;;31.40;;
75016;SDS011;63577;39.766;2.720;2023-01-13T08:32:13;55.70;;;30.60;;
75016;SDS011;63577;39.766;2.720;2023-01-13T08:34:38;52.20;;;26.50;;
75016;SDS011;63577;39.766;2.720;2023-01-13T08:37:03;49.20;;;24.30;;
75016;SDS011;63577;39.766;2.720;2023-01-13T08:39:29;42.30;;;22.50;;
75016;SDS011;63577;39.766;2.720;2023-01-13T08:41:54;40.50;;;24.90;;
75016;SDS011;63577;39.766;2.720;2023-01-13T08:44:20;40.80;;;21.90;;
75016;SDS011;63577;39.766;2.720;2023-01-13T08:46:45;42.10;;;24.30;;
75016;SDS011;63577;39.766;2.720;2023-01-13T08:49:11;41.10;;;21.00;;
75016;SDS011;63577;39.766;2.720;2023-01-13T08:51:36;36.80;;;20.60;;
75016;SDS011;63577;39.766;2.720;2023-01-13T08:54:02;31.60;;;16.20;;
75016;SDS011;63577;39.766;2.720;2023-01-13T08:56:30;34.60;;;18.70;;
75016;SDS011;63577;39.766;2.720;2023-01-13T08:58:59;38.00;;;19.60;;
75016;SDS011;63577;39.766;2.720;2023-01-13T09:01:24;39.60;;;20.50;;
75016;SDS011;63577;39.766;2.720;2023-01-13T09:03:50;36.70;;;21.20;;
75016;SDS011;63577;39.766;2.720;2023-01-13T09:06:15;43.00;;;25.50;;
75016;SDS011;63577;39.766;2.720;2023-01-13T09:08:40;48.40;;;23.80;;
75016;SDS011;63577;39.766;2.720;2023-01-13T09:11:08;40.00;;;22.50;;
75016;SDS011;63577;39.766;2.720;2023-01-13T09:13:52;51.10;;;23.50;;
75016;SDS011;63577;39.766;2.720;2023-01-13T09:16:17;41.00;;;24.80;;
75016;SDS011;63577;39.766;2.720;2023-01-13T09:18:43;41.00;;;23.20;;
75016;SDS011;63577;39.766;2.720;2023-01-13T09:21:09;38.90;;;22.80;;
75016;SDS011;63577;39.766;2.720;2023-01-13T09:23:34;48.90;;;23.20;;
75016;SDS011;63577;39.766;2.720;2023-01-13T09:26:00;41.30;;;24.70;;
75016;SDS011;63577;39.766;2.720;2023-01-13T09:28:25;47.00;;;26.90;;
75016;SDS011;63577;39.766;2.720;2023-01-13T09:30:50;41.30;;;25.40;;
75016;SDS011;63577;39.766;2.720;2023-01-13T09:33:16;45.70;;;26.70;;
75016;SDS011;63577;39.766;2.720;2023-01-13T09:36:10;47.20;;;31.00;;
75016;SDS011;63577;39.766;2.720;2023-01-13T09:38:36;51.50;;;29.10;;
75016;SDS011;63577;39.766;2.720;2023-01-13T09:41:01;50.80;;;31.30;;
75016;SDS011;63577;39.766;2.720;2023-01-13T09:43:47;50.90;;;28.30;;
75016;SDS011;63577;39.766;2.720;2023-01-13T09:46:21;54.70;;;32.00;;
75016;SDS011;63577;39.766;2.720;2023-01-13T09:49:12;54.30;;;31.30;;
75016;SDS011;63577;39.766;2.720;2023-01-13T09:51:44;51.50;;;28.70;;
75016;SDS011;63577;39.766;2.720;2023-01-13T09:57:11;38.60;;;22.80;;
75016;SDS011;63577;39.766;2.720;2023-01-13T09:59:37;36.10;;;21.90;;
75016;SDS011;63577;39.766;2.720;2023-01-13T10:02:14;34.90;;;24.20;;
75016;SDS011;63577;39.766;2.720;2023-01-13T10:04:41;34.50;;;22.20;;
75016;SDS011;63577;39.766;2.720;2023-01-13T10:07:07;32.30;;;20.80;;
75016;SDS011;63577;39.766;2.720;2023-01-13T10:09:45;32.90;;;19.80;;
75016;SDS011;63577;39.766;2.720;2023-01-13T10:12:13;33.90;;;18.40;;
75016;SDS011;63577;39.766;2.720;2023-01-13T10:14:58;19.90;;;11.30;;
75016;SDS011;63577;39.766;2.720;2023-01-13T10:27:27;9.50;;;3.70;;
75016;SDS011;63577;39.766;2.720;2023-01-13T10:29:53;8.10;;;2.80;;
75016;SDS011;63577;39.766;2.720;2023-01-13T10:32:18;6.90;;;2.80;;
75016;SDS011;63577;39.766;2.720;2023-01-13T10:34:48;9.70;;;3.10;;
75016;SDS011;63577;39.766;2.720;2023-01-13T10:37:24;6.90;;;2.90;;
75016;SDS011;63577;39.766;2.720;2023-01-13T10:39:52;9.80;;;2.80;;
75016;SDS011;63577;39.766;2.720;2023-01-13T10:42:19;8.70;;;2.80;;
75016;SDS011;63577;39.766;2.720;2023-01-13T10:44:47;11.30;;;5.20;;
75016;SDS011;63577;39.766;2.720;2023-01-13T10:49:44;13.90;;;6.60;;
75016;SDS011;63577;39.766;2.720;2023-01-13T10:52:27;11.80;;;6.50;;
75016;SDS011;63577;39.766;2.720;2023-01-13T10:54:53;11.70;;;6.60;;
75016;SDS011;63577;39.766;2.720;2023-01-13T10:57:20;10.40;;;5.00;;
75016;SDS011;63577;39.766;2.720;2023-01-13T10:59:46;7.10;;;2.50;;
75016;SDS011;63577;39.766;2.720;2023-01-13T11:02:18;7.40;;;2.90;;
75016;SDS011;63577;39.766;2.720;2023-01-13T11:07:20;7.40;;;2.50;;
75016;SDS011;63577;39.766;2.720;2023-01-13T11:09:46;12.00;;;2.90;;
75016;SDS011;63577;39.766;2.720;2023-01-13T11:12:29;9.50;;;3.00;;
75016;SDS011;63577;39.766;2.720;2023-01-13T11:14:55;9.60;;;3.10;;
75016;SDS011;63577;39.766;2.720;2023-01-13T11:17:35;8.10;;;3.30;;
75016;SDS011;63577;39.766;2.720;2023-01-13T11:22:36;8.90;;;2.80;;
75016;SDS011;63577;39.766;2.720;2023-01-13T11:25:04;8.50;;;2.20;;
75016;SDS011;63577;39.766;2.720;2023-01-13T11:30:02;8.50;;;3.50;;
75016;SDS011;63577;39.766;2.720;2023-01-13T11:32:34;8.20;;;4.10;;
75016;SDS011;63577;39.766;2.720;2023-01-13T11:35:03;16.10;;;7.80;;
75016;SDS011;63577;39.766;2.720;2023-01-13T11:37:35;13.30;;;5.70;;
75016;SDS011;63577;39.766;2.720;2023-01-13T11:45:50;22.60;;;11.20;;
75016;SDS011;63577;39.766;2.720;2023-01-13T11:48:21;27.70;;;13.50;;
75016;SDS011;63577;39.766;2.720;2023-01-13T11:53:49;67.70;;;33.50;;
75016;SDS011;63577;39.766;2.720;2023-01-13T11:59:24;20.70;;;11.60;;
75016;SDS011;63577;39.766;2.720;2023-01-13T12:25:48;80.60;;;40.40;;
75016;SDS011;63577;39.766;2.720;2023-01-13T12:28:22;35.30;;;18.30;;
75016;SDS011;63577;39.766;2.720;2023-01-13T12:30:50;33.10;;;18.20;;
75016;SDS011;63577;39.766;2.720;2023-01-13T12:43:31;13.30;;;6.20;;
75016;SDS011;63577;39.766;2.720;2023-01-13T12:51:22;14.80;;;9.50;;
75016;SDS011;63577;39.766;2.720;2023-01-13T12:53:48;17.50;;;11.50;;
75016;SDS011;63577;39.766;2.720;2023-01-13T12:58:51;12.10;;;6.60;;
75016;SDS011;63577;39.766;2.720;2023-01-13T13:01:16;10.70;;;7.30;;
75016;SDS011;63577;39.766;2.720;2023-01-13T13:06:28;9.90;;;4.50;;
75016;SDS011;63577;39.766;2.720;2023-01-13T13:14:14;9.90;;;3.80;;
75016;SDS011;63577;39.766;2.720;2023-01-13T13:16:49;8.50;;;3.10;;
75016;SDS011;63577;39.766;2.720;2023-01-13T13:24:30;6.90;;;2.90;;
75016;SDS011;63577;39.766;2.720;2023-01-13T13:26:56;9.00;;;3.10;;
75016;SDS011;63577;39.766;2.720;2023-01-13T13:29:38;7.20;;;2.70;;
75016;SDS011;63577;39.766;2.720;2023-01-13T13:39:25;13.60;;;9.10;;
75016;SDS011;63577;39.766;2.720;2023-01-13T13:42:13;10.20;;;6.00;;
75016;SDS011;63577;39.766;2.720;2023-01-13T13:45:22;7.90;;;3.70;;
75016;SDS011;63577;39.766;2.720;2023-01-13T13:48:20;9.30;;;3.20;;
75016;SDS011;63577;39.766;2.720;2023-01-13T13:50:49;6.30;;;2.50;;
75016;SDS011;63577;39.766;2.720;2023-01-13T13:53:18;6.10;;;2.30;;
75016;SDS011;63577;39.766;2.720;2023-01-13T13:55:54;9.40;;;3.60;;
75016;SDS011;63577;39.766;2.720;2023-01-13T13:58:20;10.00;;;4.70;;
75016;SDS011;63577;39.766;2.720;2023-01-13T14:00:46;8.50;;;3.20;;
75016;SDS011;63577;39.766;2.720;2023-01-13T14:03:29;7.70;;;2.60;;
75016;SDS011;63577;39.766;2.720;2023-01-13T14:05:59;5.60;;;1.90;;
75016;SDS011;63577;39.766;2.720;2023-01-13T14:08:26;6.40;;;1.70;;
75016;SDS011;63577;39.766;2.720;2023-01-13T14:10:52;10.30;;;5.80;;
75016;SDS011;63577;39.766;2.720;2023-01-13T14:13:28;11.30;;;5.70;;
75016;SDS011;63577;39.766;2.720;2023-01-13T14:15:55;11.40;;;4.50;;
75016;SDS011;63577;39.766;2.720;2023-01-13T14:18:21;15.40;;;7.60;;
75016;SDS011;63577;39.766;2.720;2023-01-13T14:21:04;34.50;;;17.90;;
75016;SDS011;63577;39.766;2.720;2023-01-13T14:23:38;15.20;;;7.20;;
75016;SDS011;63577;39.766;2.720;2023-01-13T14:26:07;8.40;;;3.80;;
75016;SDS011;63577;39.766;2.720;2023-01-13T14:28:33;20.40;;;9.70;;
75016;SDS011;63577;39.766;2.720;2023-01-13T14:30:59;8.90;;;2.90;;
75016;SDS011;63577;39.766;2.720;2023-01-13T14:34:08;13.50;;;6.10;;
75016;SDS011;63577;39.766;2.720;2023-01-13T14:36:15;17.10;;;7.50;;
75016;SDS011;63577;39.766;2.720;2023-01-13T14:38:42;9.50;;;5.20;;
75016;SDS011;63577;39.766;2.720;2023-01-13T14:41:09;7.40;;;2.60;;
75016;SDS011;63577;39.766;2.720;2023-01-13T14:43:40;7.00;;;3.10;;
75016;SDS011;63577;39.766;2.720;2023-01-13T14:46:06;6.90;;;2.50;;
75016;SDS011;63577;39.766;2.720;2023-01-13T14:48:32;6.20;;;2.10;;
75016;SDS011;63577;39.766;2.720;2023-01-13T14:51:07;6.20;;;2.00;;
75016;SDS011;63577;39.766;2.720;2023-01-13T14:53:41;6.30;;;1.90;;
75016;SDS011;63577;39.766;2.720;2023-01-13T14:58:54;10.00;;;2.80;;
75016;SDS011;63577;39.766;2.720;2023-01-13T15:01:27;8.00;;;2.20;;
75016;SDS011;63577;39.766;2.720;2023-01-13T15:03:53;64.20;;;26.60;;
75016;SDS011;63577;39.766;2.720;2023-01-13T15:06:25;50.70;;;20.80;;
75016;SDS011;63577;39.766;2.720;2023-01-13T15:08:50;21.00;;;7.80;;
75016;SDS011;63577;39.766;2.720;2023-01-13T15:11:21;9.90;;;3.60;;
75016;SDS011;63577;39.766;2.720;2023-01-13T15:13:50;16.90;;;6.50;;
75016;SDS011;63577;39.766;2.720;2023-01-13T15:16:20;179.60;;;65.10;;
75016;SDS011;63577;39.766;2.720;2023-01-13T15:18:46;34.80;;;11.90;;
75016;SDS011;63577;39.766;2.720;2023-01-13T15:21:11;14.10;;;4.10;;
75016;SDS011;63577;39.766;2.720;2023-01-13T15:23:37;6.90;;;2.80;;
75016;SDS011;63577;39.766;2.720;2023-01-13T15:26:08;7.00;;;2.70;;
75016;SDS011;63577;39.766;2.720;2023-01-13T15:28:37;24.50;;;15.80;;
75016;SDS011;63577;39.766;2.720;2023-01-13T15:31:03;11.90;;;7.00;;
75016;SDS011;63577;39.766;2.720;2023-01-13T15:33:28;7.60;;;3.60;;
75016;SDS011;63577;39.766;2.720;2023-01-13T15:35:53;9.20;;;3.40;;
75016;SDS011;63577;39.766;2.720;2023-01-13T15:38:20;11.70;;;4.90;;
75016;SDS011;63577;39.766;2.720;2023-01-13T15:40:46;17.10;;;9.90;;
75016;SDS011;63577;39.766;2.720;2023-01-13T15:43:16;18.20;;;10.70;;
75016;SDS011;63577;39.766;2.720;2023-01-13T15:46:00;18.10;;;10.70;;
75016;SDS011;63577;39.766;2.720;2023-01-13T15:48:45;14.20;;;6.50;;
75016;SDS011;63577;39.766;2.720;2023-01-13T15:51:11;12.40;;;5.90;;
75016;SDS011;63577;39.766;2.720;2023-01-13T15:53:37;7.90;;;3.40;;
75016;SDS011;63577;39.766;2.720;2023-01-13T15:56:03;10.10;;;4.30;;
75016;SDS011;63577;39.766;2.720;2023-01-13T15:58:29;8.20;;;3.80;;
75016;SDS011;63577;39.766;2.720;2023-01-13T16:00:55;9.60;;;3.70;;
75016;SDS011;63577;39.766;2.720;2023-01-13T16:03:21;10.10;;;4.50;;
75016;SDS011;63577;39.766;2.720;2023-01-13T16:05:46;9.60;;;4.00;;
75016;SDS011;63577;39.766;2.720;2023-01-13T16:08:16;7.80;;;3.10;;
75016;SDS011;63577;39.766;2.720;2023-01-13T16:10:42;55.10;;;27.20;;
75016;SDS011;63577;39.766;2.720;2023-01-13T16:13:09;95.30;;;49.80;;
75016;SDS011;63577;39.766;2.720;2023-01-13T16:15:34;169.90;;;87.50;;
75016;SDS011;63577;39.766;2.720;2023-01-13T16:18:00;197.20;;;117.40;;
75016;SDS011;63577;39.766;2.720;2023-01-13T16:20:28;296.20;;;220.30;;
75016;SDS011;63577;39.766;2.720;2023-01-13T16:22:53;128.20;;;84.10;;
75016;SDS011;63577;39.766;2.720;2023-01-13T16:25:20;34.20;;;24.50;;
75016;SDS011;63577;39.766;2.720;2023-01-13T16:27:46;21.30;;;10.90;;
75016;SDS011;63577;39.766;2.720;2023-01-13T16:30:26;38.20;;;27.10;;
75016;SDS011;63577;39.766;2.720;2023-01-13T16:32:51;26.20;;;17.60;;
75016;SDS011;63577;39.766;2.720;2023-01-13T16:35:17;20.70;;;13.70;;
75016;SDS011;63577;39.766;2.720;2023-01-13T16:37:43;47.50;;;31.10;;
75016;SDS011;63577;39.766;2.720;2023-01-13T16:40:18;38.70;;;22.80;;
75016;SDS011;63577;39.766;2.720;2023-01-13T16:42:45;38.40;;;24.50;;
75016;SDS011;63577;39.766;2.720;2023-01-13T16:45:10;15.30;;;8.60;;
75016;SDS011;63577;39.766;2.720;2023-01-13T16:47:36;11.00;;;6.60;;
75016;SDS011;63577;39.766;2.720;2023-01-13T16:50:02;13.80;;;6.70;;
75016;SDS011;63577;39.766;2.720;2023-01-13T16:52:27;19.70;;;11.10;;
75016;SDS011;63577;39.766;2.720;2023-01-13T16:54:53;14.70;;;8.10;;
75016;SDS011;63577;39.766;2.720;2023-01-13T16:57:18;15.70;;;8.30;;
75016;SDS011;63577;39.766;2.720;2023-01-13T16:59:43;57.40;;;36.20;;
75016;SDS011;63577;39.766;2.720;2023-01-13T17:02:12;67.50;;;43.70;;
75016;SDS011;63577;39.766;2.720;2023-01-13T17:04:38;66.50;;;43.60;;